Observations for BENSON RAF, United Kingdom (EGUB)

EGUB 250250Z AUTO 26001KT 9999 // BKN050/// M01/M01 Q1012   
EGUB 250150Z AUTO 13002KT 9999 // SCT130/// M03/M04 Q1012   
EGUB 250050Z AUTO 09004KT 9999 // FEW048/// BKN150/// M02/M03 Q1012 
EGUB 242350Z AUTO 19001KT 9999 // FEW160/// M04/M04 Q1012   
EGUB 242250Z AUTO 13001KT 9999 // FEW160/// M04/M05 Q1013   
EGUB 242150Z AUTO 28001KT 9999 // BKN160/// M04/M04 Q1012   
EGUB 242050Z AUTO 13001KT 9999 // SCT180/// M04/M04 Q1012   
EGUB 241950Z AUTO 00000KT 9999 // NCD M04/M05 Q1012 
EGUB 241850Z AUTO 19002KT 9999 // FEW180/// M03/M03 Q1012   
EGUB 241750Z 18003KT CAVOK M03/M03 Q1012 BLU
EGUB 241650Z 14001KT CAVOK M01/M02 Q1012 BLU
EGUB 241550Z 23002KT CAVOK 05/02 Q1012 BLU NOSIG
EGUB 241450Z 28002KT CAVOK 07/02 Q1012 BLU NOSIG
EGUB 241350Z 22001KT 9999 FEW020 SCT170 06/03 Q1012 BLU NOSIG   
EGUB 241250Z 19002KT CAVOK 07/03 Q1012 BLU NOSIG
EGUB 241150Z 16002KT 9999 FEW020 BKN200 07/04 Q1011 BLU NOSIG   
EGUB 241050Z 05001KT CAVOK 05/04 Q1011 BLU NOSIG
EGUB 240950Z 11001KT CAVOK 04/04 Q1011 BLU NOSIG
EGUB 240850Z 00000KT CAVOK 02/01 Q1010 BLU NOSIG
EGUB 240750Z 00000KT 9999 MIFG SCT140 01/00 Q1009 BLU NOSIG 
EGUB 240650Z 18002KT CAVOK 02/01 Q1009 BLU NOSIG
EGUB 240550Z 14002KT 9999 FEW048 BKN100 BKN170 02/02 Q1008 BLU  
EGUB 240450Z 00000KT 9999 SCT048 04/03 Q1007 BLU
EGUB 240350Z 00000KT 9999 FEW047 BKN070 04/03 Q1007 BLU 
EGUB 240250Z 16001KT CAVOK 04/03 Q1006 BLU